Navoi, Uzbekistan
Current Conditions -  °F | °C
As of 10:00 AM on Wednesday 26 Nov 2014 (Local Time) from UTSA Reporting Station
Clear Clear  
Wind Chill: 27°   Ceiling: Unl
Heat Index: 34°   Visibility: 4mi
Dew Point: 28°   Wind: 8mph
Humidity: 81%   Direction: 20°NNE
Pressure: 30.18"   Gusts: NA
Location:  40.08°N, 65.38°E
Report Text: UTSA 260500Z 02007KT 6000 NSC 01/M02 Q1022 R07/CLRD70 NOSIG
Loading
Personal Weather Stations






























Interactive Weather Map New forecast layout! Learn more

10-Day Weather Forecast

Advertisements
Track Severe Weather on mobile